createdAt,value
2022-08-28T00:03:30.509Z,1007.212
2022-08-28T00:08:33.250Z,1007.203
2022-08-28T00:18:38.560Z,1007.23
2022-08-28T00:28:43.789Z,1007.247
2022-08-28T00:33:48.151Z,1007.242
2022-08-28T00:38:48.983Z,1007.281
2022-08-28T00:43:51.750Z,1007.285
2022-08-28T00:48:54.420Z,1007.285
2022-08-28T00:58:59.881Z,1007.196
2022-08-28T01:09:32.469Z,1007.259
2022-08-28T01:14:37.684Z,1007.265
2022-08-28T01:19:40.300Z,1007.263
2022-08-28T01:24:42.953Z,1007.244
2022-08-28T01:29:45.694Z,1007.275
2022-08-28T01:34:50.786Z,1007.287
2022-08-28T01:39:56.443Z,1007.314
2022-08-28T01:50:01.820Z,1007.305
2022-08-28T01:55:22.811Z,1007.23
2022-08-28T02:00:25.563Z,1007.22
2022-08-28T02:05:28.213Z,1007.25
2022-08-28T02:15:33.323Z,1007.362
2022-08-28T02:20:35.978Z,1007.27
2022-08-28T02:30:44.030Z,1007.397
2022-08-28T02:35:46.513Z,1007.468
2022-08-28T02:40:51.781Z,1007.43
2022-08-28T02:46:34.474Z,1007.383
2022-08-28T02:51:37.413Z,1007.361
2022-08-28T02:56:39.849Z,1007.369
2022-08-28T03:01:42.557Z,1007.437
2022-08-28T03:06:45.377Z,1007.428
2022-08-28T03:11:48.135Z,1007.425
2022-08-28T03:16:50.878Z,1007.438
2022-08-28T03:21:53.298Z,1007.405
2022-08-28T03:26:55.969Z,1007.458
2022-08-28T03:31:58.742Z,1007.506
2022-08-28T03:37:01.380Z,1007.476
2022-08-28T03:42:03.966Z,1007.503
2022-08-28T03:47:06.601Z,1007.562
2022-08-28T03:52:09.408Z,1007.508
2022-08-28T03:57:12.002Z,1007.568
2022-08-28T04:07:17.472Z,1007.615
2022-08-28T04:12:20.550Z,1007.667
2022-08-28T04:22:25.805Z,1007.78
2022-08-28T04:27:28.511Z,1007.77
2022-08-28T04:32:31.056Z,1007.828
2022-08-28T04:37:33.724Z,1007.951
2022-08-28T04:42:36.218Z,1007.984
2022-08-28T04:57:47.814Z,1008.024
2022-08-28T05:02:50.613Z,1007.952
2022-08-28T05:07:56.153Z,1007.996
2022-08-28T05:12:58.523Z,1008.02
2022-08-28T05:18:01.074Z,1008.065
2022-08-28T05:23:03.595Z,1008.071
2022-08-28T05:28:06.358Z,1008.084
2022-08-28T05:33:09.014Z,1008.212
2022-08-28T05:38:11.902Z,1008.259
2022-08-28T05:43:14.203Z,1008.229
2022-08-28T05:48:17.129Z,1008.271
2022-08-28T05:53:20.211Z,1008.269
2022-08-28T05:58:22.989Z,1008.302
2022-08-28T06:03:25.621Z,1008.338
2022-08-28T06:08:28.359Z,1008.325
2022-08-28T06:18:33.828Z,1008.322
2022-08-28T06:28:41.652Z,1008.375
2022-08-28T06:33:44.220Z,1008.43
2022-08-28T06:38:47.334Z,1008.463
2022-08-28T06:43:50.162Z,1008.541
2022-08-28T06:48:52.775Z,1008.537
2022-08-28T06:53:55.263Z,1008.665
2022-08-28T06:58:58.322Z,1008.659
2022-08-28T07:04:01.270Z,1008.731
2022-08-28T07:09:03.883Z,1008.753
2022-08-28T07:24:12.333Z,1008.914
2022-08-28T07:29:15.089Z,1008.923
2022-08-28T07:34:17.636Z,1008.948
2022-08-28T07:39:20.458Z,1009.055
2022-08-28T07:44:23.319Z,1009.174
2022-08-28T07:49:26.149Z,1009.248
2022-08-28T07:54:28.837Z,1009.237
2022-08-28T07:59:36.699Z,1009.264
2022-08-28T08:04:34.470Z,1009.227
2022-08-28T08:09:36.860Z,1009.315
2022-08-28T08:14:39.527Z,1009.369
2022-08-28T08:19:41.884Z,1009.386
2022-08-28T08:24:44.715Z,1009.367
2022-08-28T08:29:47.535Z,1009.41
2022-08-28T08:34:50.327Z,1009.402
2022-08-28T08:39:52.993Z,1009.385
2022-08-28T08:44:55.888Z,1009.442
2022-08-28T08:49:58.628Z,1009.501
2022-08-28T09:00:03.971Z,1009.598
2022-08-28T09:10:09.322Z,1009.547
2022-08-28T09:20:14.839Z,1009.604
2022-08-28T09:25:17.603Z,1009.733
2022-08-28T09:45:28.984Z,1009.744
2022-08-28T09:50:31.645Z,1009.748
2022-08-28T09:55:34.131Z,1009.822
2022-08-28T10:00:36.562Z,1009.78
2022-08-28T10:05:39.469Z,1009.902
2022-08-28T10:10:42.243Z,1009.966
2022-08-28T10:15:44.920Z,1009.925
2022-08-28T10:20:47.544Z,1009.949
2022-08-28T10:25:50.200Z,1010.034
2022-08-28T10:30:53.317Z,1010.082
2022-08-28T10:35:55.891Z,1010.102
2022-08-28T10:40:58.470Z,1010.071
2022-08-28T10:46:03.726Z,1010.207
2022-08-28T10:51:44.353Z,1010.26
2022-08-28T10:56:45.873Z,1010.302
2022-08-28T11:01:48.430Z,1010.362
2022-08-28T11:06:51.068Z,1010.362
2022-08-28T11:11:54.480Z,1010.36
2022-08-28T11:16:56.668Z,1010.363
2022-08-28T11:21:59.315Z,1010.389
2022-08-28T11:27:04.872Z,1010.482
2022-08-28T11:32:07.408Z,1010.515
2022-08-28T11:42:12.666Z,1010.501
2022-08-28T11:47:15.425Z,1010.547
2022-08-28T11:52:18.073Z,1010.563
2022-08-28T11:57:20.894Z,1010.468
2022-08-28T12:02:23.926Z,1010.438
2022-08-28T12:07:26.436Z,1010.433
2022-08-28T12:12:29.445Z,1010.455
2022-08-28T12:17:31.949Z,1010.437
2022-08-28T12:22:34.705Z,1010.432
2022-08-28T12:27:37.452Z,1010.434
2022-08-28T12:32:40.121Z,1010.464
2022-08-28T12:37:51.721Z,1010.441
2022-08-28T12:42:45.745Z,1010.448
2022-08-28T12:47:48.337Z,1010.432
2022-08-28T12:52:51.412Z,1010.43
2022-08-28T12:57:54.016Z,1010.463
2022-08-28T13:03:11.341Z,1010.422
2022-08-28T13:08:13.974Z,1010.365
2022-08-28T13:13:16.412Z,1010.344
2022-08-28T13:18:18.858Z,1010.324
2022-08-28T13:23:21.639Z,1010.302
2022-08-28T13:28:24.409Z,1010.244
2022-08-28T13:33:27.100Z,1010.195
2022-08-28T13:38:29.636Z,1010.154
2022-08-28T13:43:32.059Z,1010.183
2022-08-28T13:48:34.726Z,1010.141
2022-08-28T13:53:37.413Z,1010.073
2022-08-28T13:58:40.161Z,1010.026
2022-08-28T14:03:42.906Z,1009.958
2022-08-28T14:08:45.411Z,1010.026
2022-08-28T14:13:55.602Z,1010.004
2022-08-28T14:18:50.798Z,1010.004
2022-08-28T14:23:53.623Z,1009.945
2022-08-28T14:28:56.313Z,1009.89
2022-08-28T14:33:59.051Z,1009.802
2022-08-28T14:39:05.969Z,1009.759
2022-08-28T14:44:04.702Z,1009.789
2022-08-28T14:49:07.663Z,1009.751
2022-08-28T14:54:10.199Z,1009.652
2022-08-28T14:59:16.812Z,1009.661
2022-08-28T15:04:15.826Z,1009.636
2022-08-28T15:09:18.283Z,1009.697
2022-08-28T15:14:21.841Z,1009.64
2022-08-28T15:19:24.397Z,1009.516
2022-08-28T15:24:27.071Z,1009.574
2022-08-28T15:29:30.172Z,1009.544
2022-08-28T15:34:32.655Z,1009.526
2022-08-28T15:39:35.331Z,1009.497
2022-08-28T15:44:37.892Z,1009.57
2022-08-28T15:49:43.517Z,1009.518
2022-08-28T15:54:43.383Z,1009.53
2022-08-28T15:59:49.256Z,1009.574
2022-08-28T16:04:48.812Z,1009.555
2022-08-28T16:09:51.599Z,1009.53
2022-08-28T16:14:54.203Z,1009.557
2022-08-28T16:19:56.689Z,1009.51
2022-08-28T16:24:59.272Z,1009.558
2022-08-28T16:30:02.148Z,1009.576
2022-08-28T16:35:04.542Z,1009.584
2022-08-28T16:40:07.000Z,1009.588
2022-08-28T16:45:09.771Z,1009.531
2022-08-28T16:50:12.999Z,1009.589
2022-08-28T16:55:15.595Z,1009.587
2022-08-28T17:00:17.767Z,1009.557
2022-08-28T17:05:20.281Z,1009.527
2022-08-28T17:10:22.763Z,1009.627
2022-08-28T17:15:25.539Z,1009.635
2022-08-28T17:20:27.974Z,1009.676
2022-08-28T17:30:33.866Z,1009.77
2022-08-28T17:35:38.567Z,1009.804
2022-08-28T17:40:38.680Z,1009.83
2022-08-28T17:50:44.025Z,1009.878
2022-08-28T17:55:46.638Z,1009.972
2022-08-28T18:00:49.414Z,1010.01
2022-08-28T18:05:52.109Z,1010.017
2022-08-28T18:10:54.923Z,1010.052
2022-08-28T18:15:57.718Z,1010.101
2022-08-28T18:21:00.188Z,1010.162
2022-08-28T18:26:02.738Z,1010.18
2022-08-28T18:31:06.009Z,1010.243
2022-08-28T18:36:08.588Z,1010.292
2022-08-28T18:41:11.226Z,1010.325
2022-08-28T18:46:13.907Z,1010.407
2022-08-28T18:51:16.589Z,1010.438
2022-08-28T18:56:18.977Z,1010.502
2022-08-28T19:01:21.949Z,1010.514
2022-08-28T19:06:24.710Z,1010.542
2022-08-28T19:11:27.444Z,1010.565
2022-08-28T19:21:32.647Z,1010.594
2022-08-28T19:31:38.033Z,1010.702
2022-08-28T19:41:42.911Z,1010.806
2022-08-28T19:46:45.607Z,1010.838
2022-08-28T19:51:48.251Z,1010.85
2022-08-28T19:56:50.898Z,1010.862
2022-08-28T20:01:53.714Z,1010.889
2022-08-28T20:06:56.634Z,1010.947
2022-08-28T20:11:59.326Z,1011.022
2022-08-28T20:17:01.964Z,1011.049
2022-08-28T20:22:04.616Z,1011.06
2022-08-28T20:27:07.145Z,1011.114
2022-08-28T20:32:09.963Z,1011.194
2022-08-28T20:37:12.508Z,1011.252
2022-08-28T20:42:15.300Z,1011.218
2022-08-28T20:47:17.947Z,1011.253
2022-08-28T20:52:20.864Z,1011.154
2022-08-28T20:57:23.449Z,1011.145
2022-08-28T21:02:26.547Z,1011.203
2022-08-28T21:07:29.132Z,1011.227
2022-08-28T21:12:31.574Z,1011.293
2022-08-28T21:17:34.335Z,1011.332
2022-08-28T21:22:37.077Z,1011.319
2022-08-28T21:27:39.656Z,1011.388
2022-08-28T21:32:42.362Z,1011.313
2022-08-28T21:37:45.111Z,1011.312
2022-08-28T21:42:47.697Z,1011.338
2022-08-28T21:47:50.346Z,1011.372
2022-08-28T21:52:53.063Z,1011.34
2022-08-28T21:57:55.762Z,1011.378
2022-08-28T22:02:58.698Z,1011.397
2022-08-28T22:08:01.389Z,1011.398
2022-08-28T22:13:04.041Z,1011.444
2022-08-28T22:18:06.681Z,1011.487
2022-08-28T22:23:09.304Z,1011.517
2022-08-28T22:28:11.908Z,1011.562
2022-08-28T22:33:14.669Z,1011.518
2022-08-28T22:38:17.379Z,1011.528
2022-08-28T22:43:19.987Z,1011.472
2022-08-28T22:49:02.430Z,1011.536
2022-08-28T22:54:05.669Z,1011.563
2022-08-28T22:59:08.344Z,1011.561
2022-08-28T23:04:11.061Z,1011.593
2022-08-28T23:09:13.810Z,1011.602
2022-08-28T23:14:16.542Z,1011.579
2022-08-28T23:19:19.175Z,1011.588
2022-08-28T23:24:21.906Z,1011.469
2022-08-28T23:29:24.561Z,1011.485
2022-08-28T23:34:27.286Z,1011.435
2022-08-28T23:39:29.993Z,1011.477
2022-08-28T23:44:32.601Z,1011.531
2022-08-28T23:49:35.373Z,1011.492
2022-08-28T23:54:38.009Z,1011.527
2022-08-28T23:59:40.824Z,1011.475
